createdAt,value
2019-02-11T00:01:01.644Z,96847.05
2019-02-11T00:03:30.903Z,96847.61
2019-02-11T00:06:00.152Z,96865.95
2019-02-11T00:08:29.434Z,96853.80
2019-02-11T00:10:59.686Z,96869.23
2019-02-11T00:13:29.102Z,96866.53
2019-02-11T00:15:58.373Z,96855.72
2019-02-11T00:18:27.614Z,96857.17
2019-02-11T00:20:56.888Z,96867.53
2019-02-11T00:23:26.173Z,96855.49
2019-02-11T00:25:57.246Z,96870.81
2019-02-11T00:28:26.512Z,96866.08
2019-02-11T00:30:55.883Z,96862.14
2019-02-11T00:33:25.123Z,96842.97
2019-02-11T00:35:54.521Z,96848.60
2019-02-11T00:38:23.758Z,96859.30
2019-02-11T00:40:53.002Z,96842.74
2019-02-11T00:43:22.383Z,96853.67
2019-02-11T00:45:51.638Z,96859.08
2019-02-11T00:48:20.907Z,96852.77
2019-02-11T00:50:50.155Z,96853.00
2019-02-11T00:53:19.453Z,96860.77
2019-02-11T00:55:48.732Z,96870.34
2019-02-11T00:58:17.966Z,96861.89
2019-02-11T01:00:47.245Z,96857.36
2019-02-11T01:03:16.484Z,96859.30
2019-02-11T01:05:45.748Z,96860.43
2019-02-11T01:08:14.995Z,96844.32
2019-02-11T01:10:44.270Z,96865.61
2019-02-11T01:13:13.518Z,96850.41
2019-02-11T01:15:42.839Z,96861.78
2019-02-11T01:18:12.090Z,96869.67
2019-02-11T01:20:41.364Z,96857.50
2019-02-11T01:23:10.615Z,96856.38
2019-02-11T01:25:39.896Z,96868.77
2019-02-11T01:28:09.150Z,96827.31
2019-02-11T01:30:38.397Z,96854.23
2019-02-11T01:33:07.690Z,96851.20
2019-02-11T01:35:36.932Z,96863.14
2019-02-11T01:38:06.202Z,96867.64
2019-02-11T01:40:35.452Z,96864.94
2019-02-11T01:43:04.708Z,96878.00
2019-02-11T01:45:33.976Z,96865.16
2019-02-11T01:48:03.261Z,96874.84
2019-02-11T01:50:32.537Z,96868.77
2019-02-11T01:53:01.790Z,96881.38
2019-02-11T01:55:31.086Z,96881.38
2019-02-11T01:58:00.774Z,96881.38
2019-02-11T02:00:30.041Z,96876.65
2019-02-11T02:02:59.312Z,96905.48
2019-02-11T02:05:29.430Z,96897.15
2019-02-11T02:07:58.719Z,96892.42
2019-02-11T02:10:27.995Z,96904.02
2019-02-11T02:12:57.246Z,96891.29
2019-02-11T02:15:26.511Z,96910.55
2019-02-11T02:17:55.792Z,96903.93
2019-02-11T02:20:25.057Z,96889.73
2019-02-11T02:22:54.298Z,96898.50
2019-02-11T02:25:23.565Z,96903.91
2019-02-11T02:27:52.857Z,96905.14
2019-02-11T02:30:22.177Z,96909.32
2019-02-11T02:32:51.449Z,96884.33
2019-02-11T02:35:20.745Z,96911.91
2019-02-11T02:37:49.977Z,96909.78
2019-02-11T02:40:19.244Z,96915.41
2019-02-11T02:42:48.486Z,96913.39
2019-02-11T02:45:17.864Z,96917.21
2019-02-11T02:47:47.110Z,96925.08
2019-02-11T02:50:17.366Z,96931.81
2019-02-11T02:52:46.665Z,96914.94
2019-02-11T02:55:15.973Z,96927.98
2019-02-11T02:57:45.259Z,96934.17
2019-02-11T03:00:14.602Z,96936.55
2019-02-11T03:02:43.883Z,96951.61
2019-02-11T03:05:13.160Z,96953.62
2019-02-11T03:07:42.412Z,96969.59
2019-02-11T03:10:12.035Z,96952.34
2019-02-11T03:12:41.300Z,96965.48
2019-02-11T03:15:10.567Z,96965.13
2019-02-11T03:17:39.847Z,96983.42
2019-02-11T03:20:09.534Z,96997.86
2019-02-11T03:22:38.783Z,96999.25
2019-02-11T03:25:08.118Z,97003.57
2019-02-11T03:27:37.357Z,96990.03
2019-02-11T03:30:07.381Z,97010.02
2019-02-11T03:32:38.119Z,96991.33
2019-02-11T03:35:07.693Z,97024.53
2019-02-11T03:37:36.931Z,97031.02
2019-02-11T03:40:06.771Z,97038.58
2019-02-11T03:42:36.039Z,97033.98
2019-02-11T03:45:06.602Z,97063.50
2019-02-11T03:47:35.873Z,97064.64
2019-02-11T03:50:05.894Z,97070.84
2019-02-11T03:52:35.167Z,97083.22
2019-02-11T03:55:04.720Z,97093.53
2019-02-11T03:57:34.209Z,97102.88
2019-02-11T04:00:03.530Z,97118.44
2019-02-11T04:02:32.828Z,97137.19
2019-02-11T04:05:02.050Z,97135.45
2019-02-11T04:07:32.382Z,97144.05
2019-02-11T04:10:01.664Z,97160.03
2019-02-11T04:12:30.915Z,97157.80
2019-02-11T04:15:00.274Z,97160.50
2019-02-11T04:17:29.569Z,97167.83
2019-02-11T04:19:58.809Z,97180.20
2019-02-11T04:22:28.076Z,97183.05
2019-02-11T04:24:57.326Z,97182.80
2019-02-11T04:27:27.773Z,97191.28
2019-02-11T04:29:57.074Z,97204.76
2019-02-11T04:32:26.356Z,97207.69
2019-02-11T04:34:55.617Z,97219.34
2019-02-11T04:37:24.917Z,97229.40
2019-02-11T04:39:54.197Z,97230.12
2019-02-11T04:42:23.462Z,97237.27
2019-02-11T04:44:52.731Z,97237.48
2019-02-11T04:47:22.061Z,97244.22
2019-02-11T04:49:51.307Z,97257.80
2019-02-11T04:52:20.579Z,97263.50
2019-02-11T04:54:50.015Z,97275.69
2019-02-11T04:57:19.282Z,97274.66
2019-02-11T04:59:48.564Z,97284.16
2019-02-11T05:02:17.833Z,97293.03
2019-02-11T05:04:47.105Z,97296.70
2019-02-11T05:07:16.366Z,97307.06
2019-02-11T05:09:45.607Z,97318.46
2019-02-11T05:12:14.886Z,97324.09
2019-02-11T05:14:44.436Z,97334.37
2019-02-11T05:17:13.772Z,97343.14
2019-02-11T05:19:43.060Z,97336.00
2019-02-11T05:22:12.328Z,97347.17
2019-02-11T05:24:41.595Z,97355.21
2019-02-11T05:27:10.887Z,97353.48
2019-02-11T05:29:40.236Z,97356.98
2019-02-11T05:32:09.515Z,97358.81
2019-02-11T05:34:38.760Z,97367.62
2019-02-11T05:37:08.035Z,97369.58
2019-02-11T05:39:37.288Z,97372.52
2019-02-11T05:42:06.559Z,97377.06
2019-02-11T05:44:35.841Z,97379.49
2019-02-11T05:47:05.102Z,97384.02
2019-02-11T05:49:34.353Z,97386.47
2019-02-11T05:52:03.621Z,97386.17
2019-02-11T05:54:32.897Z,97391.88
2019-02-11T05:57:02.182Z,97400.13
2019-02-11T05:59:31.516Z,97402.20
2019-02-11T06:02:00.831Z,97411.77
2019-02-11T06:04:30.083Z,97418.91
2019-02-11T06:06:59.382Z,97423.75
2019-02-11T06:09:28.963Z,97432.47
2019-02-11T06:11:59.275Z,97433.02
2019-02-11T06:14:28.802Z,97439.30
2019-02-11T06:16:58.488Z,97441.81
2019-02-11T06:19:28.182Z,97452.77
2019-02-11T06:21:57.523Z,97460.00
2019-02-11T06:24:26.816Z,97469.30
2019-02-11T06:26:56.205Z,97468.44
2019-02-11T06:29:25.914Z,97481.75
2019-02-11T06:31:55.503Z,97487.26
2019-02-11T06:34:25.043Z,97492.11
2019-02-11T06:36:54.635Z,97499.41
2019-02-11T06:39:23.924Z,97506.08
2019-02-11T06:41:53.591Z,97512.56
2019-02-11T06:44:24.534Z,97520.96
2019-02-11T06:46:55.435Z,97529.34
2019-02-11T06:49:25.240Z,97534.12
2019-02-11T06:51:54.555Z,97540.23
2019-02-11T06:54:25.510Z,97541.60
2019-02-11T06:56:55.067Z,97545.22
2019-02-11T06:59:25.169Z,97550.91
2019-02-11T07:01:54.468Z,97561.08
2019-02-11T07:04:24.856Z,97561.52
2019-02-11T07:06:54.170Z,97570.33
2019-02-11T07:09:23.433Z,97579.39
2019-02-11T07:11:52.684Z,97585.24
2019-02-11T07:14:21.951Z,97597.87
2019-02-11T07:16:51.199Z,97600.74
2019-02-11T07:19:20.492Z,97601.30
2019-02-11T07:21:58.673Z,97620.54
2019-02-11T07:24:34.510Z,97615.87
2019-02-11T07:27:03.767Z,97636.47
2019-02-11T07:29:33.535Z,97631.58
2019-02-11T07:32:02.781Z,97636.53
2019-02-11T07:34:32.058Z,97646.47
2019-02-11T07:37:01.310Z,97653.63
2019-02-11T07:39:30.597Z,97654.09
2019-02-11T07:42:27.827Z,97648.30
2019-02-11T07:44:59.459Z,97650.03
2019-02-11T07:47:28.705Z,97661.92
2019-02-11T07:49:57.979Z,97671.94
2019-02-11T07:52:27.335Z,97683.52
2019-02-11T07:54:56.606Z,97689.08
2019-02-11T07:57:25.874Z,97692.64
2019-02-11T07:59:55.144Z,97697.55
2019-02-11T08:02:24.439Z,97700.73
2019-02-11T08:04:53.694Z,97707.57
2019-02-11T08:07:22.966Z,97708.05
2019-02-11T08:09:52.216Z,97709.65
2019-02-11T08:12:22.692Z,97713.45
2019-02-11T08:14:51.962Z,97712.46
2019-02-11T08:17:21.212Z,97714.61
2019-02-11T08:19:50.506Z,97722.59
2019-02-11T08:22:19.751Z,97718.66
2019-02-11T08:24:49.019Z,97729.41
2019-02-11T08:27:18.262Z,97724.00
2019-02-11T08:29:47.535Z,97736.64
2019-02-11T08:32:16.858Z,97737.02
2019-02-11T08:34:46.187Z,97735.89
2019-02-11T08:37:15.493Z,97744.62
2019-02-11T08:39:44.875Z,97750.05
2019-02-11T08:42:15.351Z,97744.16
2019-02-11T08:44:44.672Z,97761.70
2019-02-11T08:47:13.974Z,97771.02
2019-02-11T08:49:43.296Z,97765.90
2019-02-11T08:52:12.575Z,97775.19
2019-02-11T08:54:41.844Z,97777.06
2019-02-11T08:57:11.091Z,97779.55
2019-02-11T08:59:40.365Z,97772.25
2019-02-11T09:02:09.638Z,97785.39
2019-02-11T09:04:38.909Z,97798.88
2019-02-11T09:07:08.194Z,97794.69
2019-02-11T09:09:37.439Z,97806.59
2019-02-11T09:12:06.735Z,97813.55
2019-02-11T09:14:36.071Z,97820.67
2019-02-11T09:17:10.293Z,97822.97
2019-02-11T09:19:36.358Z,97824.56
2019-02-11T09:22:07.563Z,97827.02
2019-02-11T09:24:36.624Z,97829.29
2019-02-11T09:27:06.473Z,97844.69
2019-02-11T09:29:35.717Z,97847.76
2019-02-11T09:32:05.066Z,97855.61
2019-02-11T09:34:34.381Z,97864.88
2019-02-11T09:37:03.694Z,97875.73
2019-02-11T09:39:32.990Z,97869.54
2019-02-11T09:42:02.300Z,97863.80
2019-02-11T09:44:31.587Z,97884.82
2019-02-11T09:47:00.866Z,97886.17
2019-02-11T09:49:30.127Z,97892.77
2019-02-11T09:51:59.751Z,97906.22
2019-02-11T09:54:29.005Z,97899.52
2019-02-11T09:56:58.289Z,97905.41
2019-02-11T09:59:27.587Z,97906.95
2019-02-11T10:01:56.867Z,97908.48
2019-02-11T10:04:26.175Z,97907.69
2019-02-11T10:06:55.464Z,97924.50
2019-02-11T10:09:26.171Z,97926.50
2019-02-11T10:11:56.739Z,97926.81
2019-02-11T10:14:25.982Z,97947.55
2019-02-11T10:16:55.269Z,97960.38
2019-02-11T10:19:24.549Z,97959.88
2019-02-11T10:21:53.787Z,97972.13
2019-02-11T10:24:23.124Z,97972.43
2019-02-11T10:26:52.359Z,97969.55
2019-02-11T10:29:21.617Z,97988.28
2019-02-11T10:31:50.875Z,97982.69
2019-02-11T10:34:20.157Z,97987.55
2019-02-11T10:36:49.431Z,97991.13
2019-02-11T10:39:18.677Z,97988.36
2019-02-11T10:41:47.979Z,97999.17
2019-02-11T10:44:17.224Z,97999.11
2019-02-11T10:46:46.511Z,97998.03
2019-02-11T10:49:15.758Z,97991.16
2019-02-11T10:51:45.011Z,97990.70
2019-02-11T10:54:14.322Z,97999.05
2019-02-11T10:56:43.587Z,98003.69
2019-02-11T10:59:12.859Z,98001.36
2019-02-11T11:01:42.176Z,97998.41
2019-02-11T11:04:11.422Z,98007.13
2019-02-11T11:06:40.690Z,98017.45
2019-02-11T11:09:13.978Z,98015.52
2019-02-11T11:11:43.255Z,98026.44
2019-02-11T11:14:12.525Z,98021.89
2019-02-11T11:16:41.781Z,98017.50
2019-02-11T11:19:11.083Z,98035.30
2019-02-11T11:21:40.433Z,98030.73
2019-02-11T11:24:09.728Z,98034.17
2019-02-11T11:26:38.983Z,98033.70
2019-02-11T11:29:08.263Z,98037.92
2019-02-11T11:31:37.648Z,98037.00
2019-02-11T11:34:06.914Z,98049.30
2019-02-11T11:36:36.166Z,98045.23
2019-02-11T11:39:07.748Z,98056.16
2019-02-11T11:41:37.043Z,98055.06
2019-02-11T11:44:06.348Z,98067.96
2019-02-11T11:46:45.637Z,98067.20
2019-02-11T11:49:06.646Z,98063.52
2019-02-11T11:51:35.903Z,98069.67
2019-02-11T11:54:05.165Z,98070.44
2019-02-11T11:56:34.475Z,98068.53
2019-02-11T11:59:03.770Z,98067.33
2019-02-11T12:01:33.060Z,98081.22
2019-02-11T12:04:06.196Z,98086.08
2019-02-11T12:06:33.415Z,98090.93
2019-02-11T12:09:04.562Z,98088.59
2019-02-11T12:11:33.905Z,98079.38
2019-02-11T12:14:04.260Z,98097.31
2019-02-11T12:16:33.551Z,98109.11
2019-02-11T12:19:02.799Z,98097.80
2019-02-11T12:21:32.992Z,98109.27
2019-02-11T12:24:02.261Z,98117.07
2019-02-11T12:26:31.507Z,98112.41
2019-02-11T12:29:00.792Z,98112.66
2019-02-11T12:31:30.033Z,98118.67
2019-02-11T12:33:59.352Z,98132.30
2019-02-11T12:36:28.628Z,98115.12
2019-02-11T12:38:57.923Z,98116.22
2019-02-11T12:41:27.202Z,98124.95
2019-02-11T12:43:56.491Z,98120.03
2019-02-11T12:46:25.830Z,98115.22
2019-02-11T12:48:55.083Z,98123.94
2019-02-11T12:51:24.357Z,98110.27
2019-02-11T12:53:53.642Z,98127.60
2019-02-11T12:56:22.917Z,98121.66
2019-02-11T12:58:52.275Z,98133.96
2019-02-11T13:01:21.554Z,98136.56
2019-02-11T13:03:50.901Z,98140.84
2019-02-11T13:06:20.172Z,98141.16
2019-02-11T13:08:49.474Z,98137.58
2019-02-11T13:11:18.734Z,98152.16
2019-02-11T13:13:48.032Z,98148.23
2019-02-11T13:16:17.297Z,98150.32
2019-02-11T13:18:48.382Z,98153.89
2019-02-11T13:21:17.701Z,98160.83
2019-02-11T13:23:48.780Z,98167.81
2019-02-11T13:26:18.073Z,98161.27
2019-02-11T13:28:47.408Z,98156.04
2019-02-11T13:31:16.688Z,98175.72
2019-02-11T13:33:47.399Z,98176.02
2019-02-11T13:36:16.724Z,98175.37
2019-02-11T13:38:45.974Z,98180.53
2019-02-11T13:41:15.269Z,98175.38
2019-02-11T13:43:51.050Z,98182.17
2019-02-11T13:46:20.346Z,98199.83
2019-02-11T13:48:51.327Z,98194.97
2019-02-11T13:51:20.666Z,98199.64
2019-02-11T13:53:49.922Z,98202.72
2019-02-11T13:56:20.231Z,98200.88
2019-02-11T13:58:52.278Z,98216.25
2019-02-11T14:01:20.496Z,98219.63
2019-02-11T14:03:49.798Z,98225.23
2019-02-11T14:06:19.060Z,98234.20
2019-02-11T14:08:48.366Z,98238.88
2019-02-11T14:11:17.894Z,98240.54
2019-02-11T14:14:01.647Z,98236.66
2019-02-11T14:16:18.383Z,98245.02
2019-02-11T14:18:47.668Z,98247.23
2019-02-11T14:21:16.949Z,98236.81
2019-02-11T14:23:46.204Z,98254.63
2019-02-11T14:26:15.494Z,98265.83
2019-02-11T14:28:44.745Z,98275.76
2019-02-11T14:31:14.059Z,98277.92
2019-02-11T14:33:43.370Z,98282.16
2019-02-11T14:36:14.412Z,98292.50
2019-02-11T14:38:43.694Z,98297.31
2019-02-11T14:41:12.940Z,98301.62
2019-02-11T14:43:42.239Z,98301.37
2019-02-11T14:46:11.531Z,98312.44
2019-02-11T14:48:40.810Z,98305.43
2019-02-11T14:51:10.103Z,98313.97
2019-02-11T14:53:39.383Z,98324.13
2019-02-11T14:56:08.667Z,98322.27
2019-02-11T14:58:37.917Z,98336.05
2019-02-11T15:01:07.199Z,98333.42
2019-02-11T15:03:36.499Z,98355.14
2019-02-11T15:06:06.891Z,98356.70
2019-02-11T15:08:36.177Z,98358.62
2019-02-11T15:11:05.434Z,98367.87
2019-02-11T15:13:35.840Z,98354.25
2019-02-11T15:16:05.206Z,98367.87
2019-02-11T15:18:34.640Z,98366.73
2019-02-11T15:21:03.910Z,98371.48
2019-02-11T15:23:33.157Z,98372.34
2019-02-11T15:26:02.455Z,98380.81
2019-02-11T15:28:31.867Z,98384.52
2019-02-11T15:31:01.179Z,98382.92
2019-02-11T15:33:30.509Z,98386.38
2019-02-11T15:35:59.843Z,98396.80
2019-02-11T15:38:29.105Z,98391.59
2019-02-11T15:40:58.350Z,98397.80
2019-02-11T15:43:27.623Z,98405.42
2019-02-11T15:45:56.885Z,98401.36
2019-02-11T15:48:26.188Z,98410.84
2019-02-11T15:50:55.460Z,98411.48
2019-02-11T15:53:24.709Z,98414.03
2019-02-11T15:55:53.987Z,98420.80
2019-02-11T15:58:23.322Z,98429.78
2019-02-11T16:00:52.648Z,98431.63
2019-02-11T16:03:21.880Z,98412.19
2019-02-11T16:05:51.170Z,98418.95
2019-02-11T16:08:20.486Z,98434.94
2019-02-11T16:11:01.179Z,98438.09
2019-02-11T16:13:26.349Z,98436.04
2019-02-11T16:15:56.338Z,98457.09
2019-02-11T16:18:25.591Z,98445.86
2019-02-11T16:20:55.375Z,98449.70
2019-02-11T16:23:26.621Z,98446.91
2019-02-11T16:25:58.506Z,98459.47
2019-02-11T16:28:29.900Z,98456.89
2019-02-11T16:31:00.791Z,98459.29
2019-02-11T16:33:30.817Z,98469.11
2019-02-11T16:36:01.965Z,98465.30
2019-02-11T16:38:31.822Z,98468.39
2019-02-11T16:41:03.272Z,98476.26
2019-02-11T16:43:34.834Z,98484.08
2019-02-11T16:46:06.127Z,98483.87
2019-02-11T16:48:37.522Z,98486.58
2019-02-11T16:51:09.972Z,98496.99
2019-02-11T16:53:41.430Z,98496.30
2019-02-11T16:56:12.705Z,98508.41
2019-02-11T16:58:44.243Z,98493.94
2019-02-11T17:01:15.361Z,98502.56
2019-02-11T17:03:45.260Z,98493.69
2019-02-11T17:06:14.586Z,98518.98
2019-02-11T17:08:43.865Z,98522.70
2019-02-11T17:11:13.115Z,98526.91
2019-02-11T17:13:42.363Z,98527.89
2019-02-11T17:16:11.654Z,98549.73
2019-02-11T17:18:40.915Z,98545.56
2019-02-11T17:21:10.206Z,98557.98
2019-02-11T17:23:39.585Z,98556.05
2019-02-11T17:26:08.855Z,98564.41
2019-02-11T17:28:38.134Z,98563.77
2019-02-11T17:31:08.182Z,98572.44
2019-02-11T17:33:37.455Z,98573.03
2019-02-11T17:36:06.735Z,98566.98
2019-02-11T17:38:35.978Z,98582.24
2019-02-11T17:41:07.803Z,98585.54
2019-02-11T17:43:37.042Z,98585.03
2019-02-11T17:46:06.406Z,98602.78
2019-02-11T17:48:35.661Z,98607.17
2019-02-11T17:51:05.159Z,98610.58
2019-02-11T17:53:34.394Z,98615.23
2019-02-11T17:56:03.716Z,98627.47
2019-02-11T17:58:33.026Z,98644.77
2019-02-11T18:01:02.454Z,98661.66
2019-02-11T18:03:31.722Z,98661.72
2019-02-11T18:06:01.026Z,98654.52
2019-02-11T18:08:30.354Z,98673.77
2019-02-11T18:10:59.609Z,98686.51
2019-02-11T18:13:28.936Z,98686.36
2019-02-11T18:15:58.205Z,98701.88
2019-02-11T18:18:27.467Z,98695.59
2019-02-11T18:20:56.738Z,98708.29
2019-02-11T18:23:26.179Z,98720.19
2019-02-11T18:25:55.468Z,98720.79
2019-02-11T18:28:24.745Z,98725.42
2019-02-11T18:30:54.054Z,98726.02
2019-02-11T18:33:23.411Z,98740.09
2019-02-11T18:35:52.694Z,98739.03
2019-02-11T18:38:21.958Z,98739.99
2019-02-11T18:40:51.250Z,98750.80
2019-02-11T18:43:21.629Z,98753.28
2019-02-11T18:45:50.944Z,98757.94
2019-02-11T18:48:21.856Z,98758.50
2019-02-11T18:50:51.155Z,98768.00
2019-02-11T18:53:22.272Z,98774.79
2019-02-11T18:55:53.094Z,98781.27
2019-02-11T18:58:22.391Z,98792.59
2019-02-11T19:00:51.675Z,98802.78
2019-02-11T19:03:21.405Z,98801.85
2019-02-11T19:05:51.134Z,98806.78
2019-02-11T19:08:20.425Z,98804.85
2019-02-11T19:10:51.531Z,98813.77
2019-02-11T19:13:20.826Z,98822.17
2019-02-11T19:15:50.275Z,98823.62
2019-02-11T19:18:20.943Z,98831.42
2019-02-11T19:20:52.097Z,98836.27
2019-02-11T19:23:22.000Z,98842.42
2019-02-11T19:25:52.556Z,98849.42
2019-02-11T19:28:21.875Z,98852.21
2019-02-11T19:30:51.159Z,98858.90
2019-02-11T19:33:20.955Z,98864.61
2019-02-11T19:35:51.182Z,98872.72
2019-02-11T19:38:20.545Z,98872.19
2019-02-11T19:40:50.313Z,98873.04
2019-02-11T19:43:19.777Z,98875.16
2019-02-11T19:45:50.713Z,98887.34
2019-02-11T19:48:20.038Z,98887.34
2019-02-11T19:50:49.403Z,98883.83
2019-02-11T19:53:18.890Z,98886.50
2019-02-11T19:55:48.170Z,98892.44
2019-02-11T19:58:18.610Z,98896.77
2019-02-11T20:00:48.013Z,98893.80
2019-02-11T20:03:17.902Z,98896.77
2019-02-11T20:05:48.235Z,98897.32
2019-02-11T20:08:20.058Z,98904.94
2019-02-11T20:10:49.431Z,98905.42
2019-02-11T20:13:18.871Z,98924.30
2019-02-11T20:15:48.202Z,98927.88
2019-02-11T20:18:19.235Z,98932.13
2019-02-11T20:20:49.317Z,98938.13
2019-02-11T20:23:18.650Z,98942.47
2019-02-11T20:25:48.937Z,98946.23
2019-02-11T20:28:18.212Z,98950.80
2019-02-11T20:30:50.570Z,98953.78
2019-02-11T20:33:19.947Z,98944.33
2019-02-11T20:35:49.760Z,98955.70
2019-02-11T20:38:19.846Z,98964.33
2019-02-11T20:40:49.689Z,98961.34
2019-02-11T20:43:21.291Z,98963.03
2019-02-11T20:45:52.737Z,98969.45
2019-02-11T20:48:25.204Z,98980.02
2019-02-11T20:50:56.576Z,98986.77
2019-02-11T20:53:29.357Z,98999.67
2019-02-11T20:56:01.874Z,98992.70
2019-02-11T20:58:35.234Z,98996.98
2019-02-11T21:01:06.103Z,98999.45
2019-02-11T21:03:37.528Z,98998.12
2019-02-11T21:06:06.981Z,99002.96
2019-02-11T21:08:37.023Z,98996.74
2019-02-11T21:11:06.320Z,98998.66
2019-02-11T21:13:36.102Z,99010.52
2019-02-11T21:16:05.390Z,99012.67
2019-02-11T21:18:34.700Z,99010.25
2019-02-11T21:21:04.574Z,99004.59
2019-02-11T21:23:33.859Z,99012.95
2019-02-11T21:26:03.114Z,99012.69
2019-02-11T21:28:32.707Z,99014.31
2019-02-11T21:31:02.276Z,99014.30
2019-02-11T21:33:31.638Z,99013.81
2019-02-11T21:36:00.949Z,99010.53
2019-02-11T21:38:31.221Z,99016.77
2019-02-11T21:41:01.150Z,99020.00
2019-02-11T21:43:30.469Z,99020.28
2019-02-11T21:45:59.719Z,99022.70
2019-02-11T21:48:28.983Z,99029.45
2019-02-11T21:50:58.415Z,99018.94
2019-02-11T21:53:27.926Z,99021.90
2019-02-11T21:55:57.215Z,99023.53
2019-02-11T21:58:26.642Z,99017.59
2019-02-11T22:01:02.088Z,99029.77
2019-02-11T22:03:26.901Z,99039.47
2019-02-11T22:05:56.183Z,99042.43
2019-02-11T22:08:25.490Z,99045.67
2019-02-11T22:10:56.072Z,99047.83
2019-02-11T22:13:25.342Z,99048.91
2019-02-11T22:15:55.065Z,99054.59
2019-02-11T22:18:24.347Z,99064.83
2019-02-11T22:20:54.330Z,99059.41
2019-02-11T22:23:23.609Z,99062.91
2019-02-11T22:25:52.867Z,99066.69
2019-02-11T22:28:22.170Z,99064.02
2019-02-11T22:30:51.517Z,99063.75
2019-02-11T22:33:20.847Z,99063.75
2019-02-11T22:35:50.155Z,99061.33
2019-02-11T22:38:19.769Z,99067.23
2019-02-11T22:40:49.061Z,99061.59
2019-02-11T22:43:18.641Z,99065.38
2019-02-11T22:45:47.975Z,99074.27
2019-02-11T22:48:17.593Z,99074.78
2019-02-11T22:50:47.265Z,99078.55
2019-02-11T22:53:16.918Z,99075.59
2019-02-11T22:55:46.219Z,99074.78
2019-02-11T22:58:16.198Z,99082.06
2019-02-11T23:00:53.200Z,99077.45
2019-02-11T23:03:22.456Z,99093.89
2019-02-11T23:05:51.720Z,99098.20
2019-02-11T23:08:21.013Z,99103.33
2019-02-11T23:10:50.536Z,99100.09
2019-02-11T23:13:19.798Z,99084.99
2019-02-11T23:15:49.223Z,99097.66
2019-02-11T23:18:18.516Z,99097.66
2019-02-11T23:20:52.146Z,99100.63
2019-02-11T23:23:18.924Z,99116.27
2019-02-11T23:25:48.178Z,99118.16
2019-02-11T23:28:17.426Z,99128.11
2019-02-11T23:30:46.695Z,99136.73
2019-02-11T23:33:15.944Z,99139.43
2019-02-11T23:35:45.187Z,99140.81
2019-02-11T23:38:14.477Z,99151.84
2019-02-11T23:40:43.724Z,99157.23
2019-02-11T23:43:14.772Z,99155.08
2019-02-11T23:45:44.039Z,99149.68
2019-02-11T23:48:13.597Z,99157.50
2019-02-11T23:50:42.881Z,99165.32
2019-02-11T23:53:12.143Z,99173.41
2019-02-11T23:55:41.391Z,99176.11
2019-02-11T23:58:10.669Z,99175.57
